<?xml version="1.0" encoding="UTF-8" standalone="no" ?>
<gpx xmlns="http://www.topografix.com/GPX/1/1" xmlns:xsi="http://www.w3.org/2001/XMLSchema-instance" xsi:schemaLocation="http://www.topografix.com/GPX/1/1 http://www.topografix.com/GPX/1/1/gpx.xsd" version="1.1" creator="VisuGPX - https://www.visugpx.com">
  <metadata>
    <name>louvigny baron vieux la romaine </name>
  </metadata>
  <trk>
    <name><![CDATA[12862430-louvignu baron vieux la romaine ]]></name>
    <trkseg>
      <trkpt lat="49.16832" lon="-0.36876">
        <ele>3</ele>
        <time>2022-06-09T06:35:41Z</time>
      </trkpt>
      <trkpt lat="49.16355" lon="-0.37526">
        <ele>7</ele>
        <time>2022-06-09T06:37:35Z</time>
      </trkpt>
      <trkpt lat="49.1634" lon="-0.37632">
        <ele>9</ele>
        <time>2022-06-09T06:37:47Z</time>
      </trkpt>
      <trkpt lat="49.16303" lon="-0.37722">
        <ele>11</ele>
        <time>2022-06-09T06:38:00Z</time>
      </trkpt>
      <trkpt lat="49.16244" lon="-0.37776">
        <ele>10</ele>
        <time>2022-06-09T06:38:12Z</time>
      </trkpt>
      <trkpt lat="49.1609" lon="-0.37844">
        <ele>10</ele>
        <time>2022-06-09T06:38:40Z</time>
      </trkpt>
      <trkpt lat="49.15946" lon="-0.37915">
        <ele>10</ele>
        <time>2022-06-09T06:39:07Z</time>
      </trkpt>
      <trkpt lat="49.15804" lon="-0.37986">
        <ele>8</ele>
        <time>2022-06-09T06:39:34Z</time>
      </trkpt>
      <trkpt lat="49.15784" lon="-0.38047">
        <ele>8</ele>
        <time>2022-06-09T06:39:42Z</time>
      </trkpt>
      <trkpt lat="49.15838" lon="-0.38373">
        <ele>9</ele>
        <time>2022-06-09T06:40:21Z</time>
      </trkpt>
      <trkpt lat="49.15909" lon="-0.38731">
        <ele>11</ele>
        <time>2022-06-09T06:41:05Z</time>
      </trkpt>
      <trkpt lat="49.15849" lon="-0.38754">
        <ele>9</ele>
        <time>2022-06-09T06:41:16Z</time>
      </trkpt>
      <trkpt lat="49.15705" lon="-0.38886">
        <ele>7</ele>
        <time>2022-06-09T06:41:45Z</time>
      </trkpt>
      <trkpt lat="49.15676" lon="-0.39037">
        <ele>7</ele>
        <time>2022-06-09T06:42:04Z</time>
      </trkpt>
      <trkpt lat="49.15634" lon="-0.39169">
        <ele>7</ele>
        <time>2022-06-09T06:42:21Z</time>
      </trkpt>
      <trkpt lat="49.15574" lon="-0.39294">
        <ele>7</ele>
        <time>2022-06-09T06:42:39Z</time>
      </trkpt>
      <trkpt lat="49.15505" lon="-0.39465">
        <ele>10</ele>
        <time>2022-06-09T06:43:02Z</time>
      </trkpt>
      <trkpt lat="49.15331" lon="-0.39792">
        <ele>17</ele>
        <time>2022-06-09T06:43:51Z</time>
      </trkpt>
      <trkpt lat="49.15202" lon="-0.4005">
        <ele>26</ele>
        <time>2022-06-09T06:44:29Z</time>
      </trkpt>
      <trkpt lat="49.15091" lon="-0.40104">
        <ele>28</ele>
        <time>2022-06-09T06:44:50Z</time>
      </trkpt>
      <trkpt lat="49.1495" lon="-0.40194">
        <ele>32</ele>
        <time>2022-06-09T06:45:17Z</time>
      </trkpt>
      <trkpt lat="49.14809" lon="-0.40284">
        <ele>29</ele>
        <time>2022-06-09T06:45:44Z</time>
      </trkpt>
      <trkpt lat="49.14667" lon="-0.40374">
        <ele>28</ele>
        <time>2022-06-09T06:46:12Z</time>
      </trkpt>
      <trkpt lat="49.14512" lon="-0.40461">
        <ele>28</ele>
        <time>2022-06-09T06:46:41Z</time>
      </trkpt>
      <trkpt lat="49.14371" lon="-0.4056">
        <ele>27</ele>
        <time>2022-06-09T06:47:09Z</time>
      </trkpt>
      <trkpt lat="49.1425" lon="-0.40581">
        <ele>27</ele>
        <time>2022-06-09T06:47:30Z</time>
      </trkpt>
      <trkpt lat="49.14107" lon="-0.40613">
        <ele>29</ele>
        <time>2022-06-09T06:47:56Z</time>
      </trkpt>
      <trkpt lat="49.13978" lon="-0.40662">
        <ele>32</ele>
        <time>2022-06-09T06:48:20Z</time>
      </trkpt>
      <trkpt lat="49.13794" lon="-0.40856">
        <ele>35</ele>
        <time>2022-06-09T06:48:59Z</time>
      </trkpt>
      <trkpt lat="49.13627" lon="-0.41038">
        <ele>36</ele>
        <time>2022-06-09T06:49:36Z</time>
      </trkpt>
      <trkpt lat="49.13553" lon="-0.41128">
        <ele>38</ele>
        <time>2022-06-09T06:49:53Z</time>
      </trkpt>
      <trkpt lat="49.13438" lon="-0.41283">
        <ele>39</ele>
        <time>2022-06-09T06:50:20Z</time>
      </trkpt>
      <trkpt lat="49.1344" lon="-0.41309">
        <ele>39</ele>
        <time>2022-06-09T06:50:23Z</time>
      </trkpt>
      <trkpt lat="49.14017" lon="-0.42102">
        <ele>53</ele>
        <time>2022-06-09T06:52:41Z</time>
      </trkpt>
      <trkpt lat="49.14221" lon="-0.42367">
        <ele>49</ele>
        <time>2022-06-09T06:53:29Z</time>
      </trkpt>
      <trkpt lat="49.14243" lon="-0.42414">
        <ele>49</ele>
        <time>2022-06-09T06:53:35Z</time>
      </trkpt>
      <trkpt lat="49.14288" lon="-0.4254">
        <ele>48</ele>
        <time>2022-06-09T06:53:52Z</time>
      </trkpt>
      <trkpt lat="49.14274" lon="-0.4261">
        <ele>48</ele>
        <time>2022-06-09T06:54:01Z</time>
      </trkpt>
      <trkpt lat="49.14203" lon="-0.42726">
        <ele>51</ele>
        <time>2022-06-09T06:54:19Z</time>
      </trkpt>
      <trkpt lat="49.1425" lon="-0.42802">
        <ele>49</ele>
        <time>2022-06-09T06:54:31Z</time>
      </trkpt>
      <trkpt lat="49.14489" lon="-0.43078">
        <ele>49</ele>
        <time>2022-06-09T06:55:25Z</time>
      </trkpt>
      <trkpt lat="49.14435" lon="-0.43227">
        <ele>51</ele>
        <time>2022-06-09T06:55:44Z</time>
      </trkpt>
      <trkpt lat="49.14754" lon="-0.43706">
        <ele>50</ele>
        <time>2022-06-09T06:57:04Z</time>
      </trkpt>
      <trkpt lat="49.15151" lon="-0.4428">
        <ele>36</ele>
        <time>2022-06-09T06:58:41Z</time>
      </trkpt>
      <trkpt lat="49.15188" lon="-0.44362">
        <ele>33</ele>
        <time>2022-06-09T06:58:53Z</time>
      </trkpt>
      <trkpt lat="49.15029" lon="-0.44758">
        <ele>36</ele>
        <time>2022-06-09T06:59:47Z</time>
      </trkpt>
      <trkpt lat="49.1502" lon="-0.44775">
        <ele>37</ele>
        <time>2022-06-09T06:59:49Z</time>
      </trkpt>
      <trkpt lat="49.14726" lon="-0.45139">
        <ele>49</ele>
        <time>2022-06-09T07:00:57Z</time>
      </trkpt>
      <trkpt lat="49.14597" lon="-0.45336">
        <ele>54</ele>
        <time>2022-06-09T07:01:29Z</time>
      </trkpt>
      <trkpt lat="49.14569" lon="-0.45391">
        <ele>55</ele>
        <time>2022-06-09T07:01:37Z</time>
      </trkpt>
      <trkpt lat="49.14507" lon="-0.45401">
        <ele>57</ele>
        <time>2022-06-09T07:01:48Z</time>
      </trkpt>
      <trkpt lat="49.14479" lon="-0.45465">
        <ele>58</ele>
        <time>2022-06-09T07:01:57Z</time>
      </trkpt>
      <trkpt lat="49.14276" lon="-0.45804">
        <ele>63</ele>
        <time>2022-06-09T07:02:51Z</time>
      </trkpt>
      <trkpt lat="49.14116" lon="-0.46003">
        <ele>62</ele>
        <time>2022-06-09T07:03:28Z</time>
      </trkpt>
      <trkpt lat="49.14052" lon="-0.4623">
        <ele>71</ele>
        <time>2022-06-09T07:03:56Z</time>
      </trkpt>
      <trkpt lat="49.13795" lon="-0.46743">
        <ele>81</ele>
        <time>2022-06-09T07:05:11Z</time>
      </trkpt>
      <trkpt lat="49.1357" lon="-0.47172">
        <ele>86</ele>
        <time>2022-06-09T07:06:16Z</time>
      </trkpt>
      <trkpt lat="49.1357" lon="-0.47331">
        <ele>86</ele>
        <time>2022-06-09T07:06:34Z</time>
      </trkpt>
      <trkpt lat="49.1353" lon="-0.47566">
        <ele>82</ele>
        <time>2022-06-09T07:07:02Z</time>
      </trkpt>
      <trkpt lat="49.13476" lon="-0.47629">
        <ele>80</ele>
        <time>2022-06-09T07:07:14Z</time>
      </trkpt>
      <trkpt lat="49.13419" lon="-0.47671">
        <ele>78</ele>
        <time>2022-06-09T07:07:26Z</time>
      </trkpt>
      <trkpt lat="49.13358" lon="-0.47807">
        <ele>80</ele>
        <time>2022-06-09T07:07:45Z</time>
      </trkpt>
      <trkpt lat="49.1333" lon="-0.4785">
        <ele>80</ele>
        <time>2022-06-09T07:07:52Z</time>
      </trkpt>
      <trkpt lat="49.13266" lon="-0.4789">
        <ele>79</ele>
        <time>2022-06-09T07:08:04Z</time>
      </trkpt>
      <trkpt lat="49.13165" lon="-0.47955">
        <ele>76</ele>
        <time>2022-06-09T07:08:24Z</time>
      </trkpt>
      <trkpt lat="49.13113" lon="-0.47953">
        <ele>76</ele>
        <time>2022-06-09T07:08:33Z</time>
      </trkpt>
      <trkpt lat="49.13027" lon="-0.48041">
        <ele>75</ele>
        <time>2022-06-09T07:08:51Z</time>
      </trkpt>
      <trkpt lat="49.12839" lon="-0.48292">
        <ele>80</ele>
        <time>2022-06-09T07:09:36Z</time>
      </trkpt>
      <trkpt lat="49.1279" lon="-0.48414">
        <ele>80</ele>
        <time>2022-06-09T07:09:52Z</time>
      </trkpt>
      <trkpt lat="49.12708" lon="-0.48631">
        <ele>83</ele>
        <time>2022-06-09T07:10:22Z</time>
      </trkpt>
      <trkpt lat="49.12686" lon="-0.48704">
        <ele>83</ele>
        <time>2022-06-09T07:10:31Z</time>
      </trkpt>
      <trkpt lat="49.12444" lon="-0.49111">
        <ele>88</ele>
        <time>2022-06-09T07:11:35Z</time>
      </trkpt>
      <trkpt lat="49.1218" lon="-0.48686">
        <ele>100</ele>
        <time>2022-06-09T07:12:43Z</time>
      </trkpt>
      <trkpt lat="49.11907" lon="-0.48289">
        <ele>96</ele>
        <time>2022-06-09T07:13:50Z</time>
      </trkpt>
      <trkpt lat="49.11686" lon="-0.4794">
        <ele>84</ele>
        <time>2022-06-09T07:14:47Z</time>
      </trkpt>
      <trkpt lat="49.11474" lon="-0.47564">
        <ele>75</ele>
        <time>2022-06-09T07:15:45Z</time>
      </trkpt>
      <trkpt lat="49.11304" lon="-0.4724">
        <ele>77</ele>
        <time>2022-06-09T07:16:33Z</time>
      </trkpt>
      <trkpt lat="49.11114" lon="-0.4694">
        <ele>80</ele>
        <time>2022-06-09T07:17:22Z</time>
      </trkpt>
      <trkpt lat="49.10999" lon="-0.46622">
        <ele>79</ele>
        <time>2022-06-09T07:18:04Z</time>
      </trkpt>
      <trkpt lat="49.10963" lon="-0.4638">
        <ele>80</ele>
        <time>2022-06-09T07:18:33Z</time>
      </trkpt>
      <trkpt lat="49.10951" lon="-0.46169">
        <ele>82</ele>
        <time>2022-06-09T07:18:58Z</time>
      </trkpt>
      <trkpt lat="49.10907" lon="-0.46034">
        <ele>79</ele>
        <time>2022-06-09T07:19:15Z</time>
      </trkpt>
      <trkpt lat="49.10895" lon="-0.4529">
        <ele>70</ele>
        <time>2022-06-09T07:20:42Z</time>
      </trkpt>
      <trkpt lat="49.1094" lon="-0.44884">
        <ele>68</ele>
        <time>2022-06-09T07:21:30Z</time>
      </trkpt>
      <trkpt lat="49.10926" lon="-0.44429">
        <ele>64</ele>
        <time>2022-06-09T07:22:23Z</time>
      </trkpt>
      <trkpt lat="49.10895" lon="-0.43878">
        <ele>64</ele>
        <time>2022-06-09T07:23:27Z</time>
      </trkpt>
      <trkpt lat="49.10864" lon="-0.436">
        <ele>62</ele>
        <time>2022-06-09T07:24:00Z</time>
      </trkpt>
      <trkpt lat="49.10855" lon="-0.43486">
        <ele>61</ele>
        <time>2022-06-09T07:24:13Z</time>
      </trkpt>
      <trkpt lat="49.10847" lon="-0.43452">
        <ele>60</ele>
        <time>2022-06-09T07:24:18Z</time>
      </trkpt>
      <trkpt lat="49.10916" lon="-0.43336">
        <ele>60</ele>
        <time>2022-06-09T07:24:36Z</time>
      </trkpt>
      <trkpt lat="49.10951" lon="-0.43203">
        <ele>62</ele>
        <time>2022-06-09T07:24:53Z</time>
      </trkpt>
      <trkpt lat="49.11043" lon="-0.43074">
        <ele>64</ele>
        <time>2022-06-09T07:25:15Z</time>
      </trkpt>
      <trkpt lat="49.11111" lon="-0.43031">
        <ele>66</ele>
        <time>2022-06-09T07:25:28Z</time>
      </trkpt>
      <trkpt lat="49.11134" lon="-0.42726">
        <ele>63</ele>
        <time>2022-06-09T07:26:04Z</time>
      </trkpt>
      <trkpt lat="49.11252" lon="-0.41983">
        <ele>66</ele>
        <time>2022-06-09T07:27:33Z</time>
      </trkpt>
      <trkpt lat="49.11327" lon="-0.41326">
        <ele>58</ele>
        <time>2022-06-09T07:28:50Z</time>
      </trkpt>
      <trkpt lat="49.11266" lon="-0.40869">
        <ele>56</ele>
        <time>2022-06-09T07:29:45Z</time>
      </trkpt>
      <trkpt lat="49.11241" lon="-0.40608">
        <ele>56</ele>
        <time>2022-06-09T07:30:15Z</time>
      </trkpt>
      <trkpt lat="49.11338" lon="-0.40464">
        <ele>54</ele>
        <time>2022-06-09T07:30:39Z</time>
      </trkpt>
      <trkpt lat="49.11371" lon="-0.40365">
        <ele>56</ele>
        <time>2022-06-09T07:30:52Z</time>
      </trkpt>
      <trkpt lat="49.11376" lon="-0.40266">
        <ele>57</ele>
        <time>2022-06-09T07:31:04Z</time>
      </trkpt>
      <trkpt lat="49.11368" lon="-0.40133">
        <ele>57</ele>
        <time>2022-06-09T07:31:20Z</time>
      </trkpt>
      <trkpt lat="49.11399" lon="-0.40052">
        <ele>57</ele>
        <time>2022-06-09T07:31:30Z</time>
      </trkpt>
      <trkpt lat="49.11506" lon="-0.39986">
        <ele>54</ele>
        <time>2022-06-09T07:31:51Z</time>
      </trkpt>
      <trkpt lat="49.11727" lon="-0.3973">
        <ele>34</ele>
        <time>2022-06-09T07:32:40Z</time>
      </trkpt>
      <trkpt lat="49.11807" lon="-0.39602">
        <ele>26</ele>
        <time>2022-06-09T07:33:01Z</time>
      </trkpt>
      <trkpt lat="49.11835" lon="-0.39454">
        <ele>21</ele>
        <time>2022-06-09T07:33:19Z</time>
      </trkpt>
      <trkpt lat="49.11828" lon="-0.39412">
        <ele>21</ele>
        <time>2022-06-09T07:33:24Z</time>
      </trkpt>
      <trkpt lat="49.11798" lon="-0.39329">
        <ele>18</ele>
        <time>2022-06-09T07:33:35Z</time>
      </trkpt>
      <trkpt lat="49.11822" lon="-0.39254">
        <ele>12</ele>
        <time>2022-06-09T07:33:45Z</time>
      </trkpt>
      <trkpt lat="49.11606" lon="-0.39031">
        <ele>5</ele>
        <time>2022-06-09T07:34:31Z</time>
      </trkpt>
      <trkpt lat="49.11526" lon="-0.3892">
        <ele>7</ele>
        <time>2022-06-09T07:34:50Z</time>
      </trkpt>
      <trkpt lat="49.11496" lon="-0.38961">
        <ele>7</ele>
        <time>2022-06-09T07:34:57Z</time>
      </trkpt>
      <trkpt lat="49.11686" lon="-0.39144">
        <ele>7</ele>
        <time>2022-06-09T07:35:37Z</time>
      </trkpt>
      <trkpt lat="49.11834" lon="-0.39326">
        <ele>17</ele>
        <time>2022-06-09T07:36:11Z</time>
      </trkpt>
      <trkpt lat="49.11974" lon="-0.39536">
        <ele>18</ele>
        <time>2022-06-09T07:36:46Z</time>
      </trkpt>
      <trkpt lat="49.12115" lon="-0.39747">
        <ele>18</ele>
        <time>2022-06-09T07:37:21Z</time>
      </trkpt>
      <trkpt lat="49.12266" lon="-0.3992">
        <ele>16</ele>
        <time>2022-06-09T07:37:55Z</time>
      </trkpt>
      <trkpt lat="49.12431" lon="-0.4005">
        <ele>10</ele>
        <time>2022-06-09T07:38:28Z</time>
      </trkpt>
      <trkpt lat="49.12595" lon="-0.40173">
        <ele>8</ele>
        <time>2022-06-09T07:39:00Z</time>
      </trkpt>
      <trkpt lat="49.12747" lon="-0.40221">
        <ele>10</ele>
        <time>2022-06-09T07:39:28Z</time>
      </trkpt>
      <trkpt lat="49.12903" lon="-0.40243">
        <ele>7</ele>
        <time>2022-06-09T07:39:56Z</time>
      </trkpt>
      <trkpt lat="49.13059" lon="-0.40197">
        <ele>9</ele>
        <time>2022-06-09T07:40:24Z</time>
      </trkpt>
      <trkpt lat="49.13219" lon="-0.40103">
        <ele>9</ele>
        <time>2022-06-09T07:40:55Z</time>
      </trkpt>
      <trkpt lat="49.13374" lon="-0.39935">
        <ele>11</ele>
        <time>2022-06-09T07:41:28Z</time>
      </trkpt>
      <trkpt lat="49.13529" lon="-0.39768">
        <ele>9</ele>
        <time>2022-06-09T07:42:02Z</time>
      </trkpt>
      <trkpt lat="49.13687" lon="-0.39611">
        <ele>7</ele>
        <time>2022-06-09T07:42:36Z</time>
      </trkpt>
      <trkpt lat="49.13846" lon="-0.39439">
        <ele>7</ele>
        <time>2022-06-09T07:43:10Z</time>
      </trkpt>
      <trkpt lat="49.1401" lon="-0.39273">
        <ele>4</ele>
        <time>2022-06-09T07:43:45Z</time>
      </trkpt>
      <trkpt lat="49.14175" lon="-0.39107">
        <ele>4</ele>
        <time>2022-06-09T07:44:21Z</time>
      </trkpt>
      <trkpt lat="49.14339" lon="-0.38942">
        <ele>4</ele>
        <time>2022-06-09T07:44:55Z</time>
      </trkpt>
      <trkpt lat="49.14504" lon="-0.38776">
        <ele>4</ele>
        <time>2022-06-09T07:45:31Z</time>
      </trkpt>
      <trkpt lat="49.1468" lon="-0.38633">
        <ele>6</ele>
        <time>2022-06-09T07:46:06Z</time>
      </trkpt>
      <trkpt lat="49.14865" lon="-0.38523">
        <ele>5</ele>
        <time>2022-06-09T07:46:41Z</time>
      </trkpt>
      <trkpt lat="49.15047" lon="-0.38397">
        <ele>5</ele>
        <time>2022-06-09T07:47:17Z</time>
      </trkpt>
      <trkpt lat="49.15219" lon="-0.38286">
        <ele>6</ele>
        <time>2022-06-09T07:47:50Z</time>
      </trkpt>
      <trkpt lat="49.15412" lon="-0.38166">
        <ele>5</ele>
        <time>2022-06-09T07:48:27Z</time>
      </trkpt>
      <trkpt lat="49.15502" lon="-0.37974">
        <ele>5</ele>
        <time>2022-06-09T07:48:55Z</time>
      </trkpt>
      <trkpt lat="49.15672" lon="-0.38039">
        <ele>8</ele>
        <time>2022-06-09T07:49:26Z</time>
      </trkpt>
      <trkpt lat="49.15705" lon="-0.37973">
        <ele>8</ele>
        <time>2022-06-09T07:49:36Z</time>
      </trkpt>
      <trkpt lat="49.15757" lon="-0.37926">
        <ele>6</ele>
        <time>2022-06-09T07:49:46Z</time>
      </trkpt>
      <trkpt lat="49.15765" lon="-0.37953">
        <ele>7</ele>
        <time>2022-06-09T07:49:50Z</time>
      </trkpt>
      <trkpt lat="49.15933" lon="-0.37847">
        <ele>8</ele>
        <time>2022-06-09T07:50:22Z</time>
      </trkpt>
      <trkpt lat="49.1609" lon="-0.37752">
        <ele>7</ele>
        <time>2022-06-09T07:50:52Z</time>
      </trkpt>
      <trkpt lat="49.16226" lon="-0.37672">
        <ele>8</ele>
        <time>2022-06-09T07:51:18Z</time>
      </trkpt>
      <trkpt lat="49.16359" lon="-0.37585">
        <ele>7</ele>
        <time>2022-06-09T07:51:44Z</time>
      </trkpt>
      <trkpt lat="49.16497" lon="-0.37496">
        <ele>6</ele>
        <time>2022-06-09T07:52:10Z</time>
      </trkpt>
      <trkpt lat="49.1664" lon="-0.37402">
        <ele>6</ele>
        <time>2022-06-09T07:52:38Z</time>
      </trkpt>
      <trkpt lat="49.16759" lon="-0.37268">
        <ele>6</ele>
        <time>2022-06-09T07:53:04Z</time>
      </trkpt>
      <trkpt lat="49.16862" lon="-0.37098">
        <ele>7</ele>
        <time>2022-06-09T07:53:31Z</time>
      </trkpt>
      <trkpt lat="49.16902" lon="-0.37016">
        <ele>6</ele>
        <time>2022-06-09T07:53:43Z</time>
      </trkpt>
      <trkpt lat="49.16825" lon="-0.36863">
        <ele>3</ele>
        <time>2022-06-09T07:54:06Z</time>
      </trkpt>
    </trkseg>
  </trk>
</gpx>